sensor_id;sensor_type;location;lat;lon;timestamp;temperature;humidity
971;DHT22;28939;45.540;-122.632;2022-08-01T00:02:18;36.40;51.40
971;DHT22;28939;45.540;-122.632;2022-08-01T00:04:49;36.50;50.30
971;DHT22;28939;45.540;-122.632;2022-08-01T00:07:20;36.30;52.10
971;DHT22;28939;45.540;-122.632;2022-08-01T00:09:50;36.30;51.30
971;DHT22;28939;45.540;-122.632;2022-08-01T00:12:21;36.40;51.00
971;DHT22;28939;45.540;-122.632;2022-08-01T00:14:52;36.40;50.50
971;DHT22;28939;45.540;-122.632;2022-08-01T00:17:25;36.30;50.40
971;DHT22;28939;45.540;-122.632;2022-08-01T00:19:56;36.20;51.00
971;DHT22;28939;45.540;-122.632;2022-08-01T00:22:27;36.30;51.30
971;DHT22;28939;45.540;-122.632;2022-08-01T00:24:58;36.30;52.10
971;DHT22;28939;45.540;-122.632;2022-08-01T00:27:29;36.20;49.90
971;DHT22;28939;45.540;-122.632;2022-08-01T00:30:05;36.00;50.30
971;DHT22;28939;45.540;-122.632;2022-08-01T00:32:43;35.90;51.90
971;DHT22;28939;45.540;-122.632;2022-08-01T00:35:13;35.80;49.90
971;DHT22;28939;45.540;-122.632;2022-08-01T00:37:45;35.80;50.20
971;DHT22;28939;45.540;-122.632;2022-08-01T00:40:16;35.80;50.90
971;DHT22;28939;45.540;-122.632;2022-08-01T00:42:46;35.70;51.10
971;DHT22;28939;45.540;-122.632;2022-08-01T00:45:17;35.60;50.00
971;DHT22;28939;45.540;-122.632;2022-08-01T00:47:49;35.50;49.70
971;DHT22;28939;45.540;-122.632;2022-08-01T00:50:22;35.50;50.60
971;DHT22;28939;45.540;-122.632;2022-08-01T00:52:54;35.50;50.70
971;DHT22;28939;45.540;-122.632;2022-08-01T00:55:26;35.50;50.90
971;DHT22;28939;45.540;-122.632;2022-08-01T00:57:57;35.40;51.40
971;DHT22;28939;45.540;-122.632;2022-08-01T01:00:33;35.30;51.50
971;DHT22;28939;45.540;-122.632;2022-08-01T01:03:22;35.30;52.50
971;DHT22;28939;45.540;-122.632;2022-08-01T01:06:32;35.20;52.90
971;DHT22;28939;45.540;-122.632;2022-08-01T01:09:23;35.10;54.30
971;DHT22;28939;45.540;-122.632;2022-08-01T01:12:03;35.10;53.00
971;DHT22;28939;45.540;-122.632;2022-08-01T01:14:43;35.10;53.00
971;DHT22;28939;45.540;-122.632;2022-08-01T01:17:17;35.00;53.60
971;DHT22;28939;45.540;-122.632;2022-08-01T01:20:13;34.90;53.30
971;DHT22;28939;45.540;-122.632;2022-08-01T01:29:02;34.80;53.50
971;DHT22;28939;45.540;-122.632;2022-08-01T01:31:40;34.70;51.30
971;DHT22;28939;45.540;-122.632;2022-08-01T01:34:13;34.60;53.00
971;DHT22;28939;45.540;-122.632;2022-08-01T01:36:47;34.50;53.30
971;DHT22;28939;45.540;-122.632;2022-08-01T01:39:18;34.50;53.80
971;DHT22;28939;45.540;-122.632;2022-08-01T01:41:51;34.40;54.20
971;DHT22;28939;45.540;-122.632;2022-08-01T01:44:26;34.40;55.10
971;DHT22;28939;45.540;-122.632;2022-08-01T01:46:58;34.30;54.70
971;DHT22;28939;45.540;-122.632;2022-08-01T01:49:32;34.20;56.00
971;DHT22;28939;45.540;-122.632;2022-08-01T01:52:04;34.10;55.60
971;DHT22;28939;45.540;-122.632;2022-08-01T01:54:39;34.10;57.20
971;DHT22;28939;45.540;-122.632;2022-08-01T01:57:12;34.00;57.30
971;DHT22;28939;45.540;-122.632;2022-08-01T01:59:46;33.90;55.30
971;DHT22;28939;45.540;-122.632;2022-08-01T02:02:17;33.90;55.00
971;DHT22;28939;45.540;-122.632;2022-08-01T02:04:49;33.90;55.30
971;DHT22;28939;45.540;-122.632;2022-08-01T02:07:24;33.90;56.30
971;DHT22;28939;45.540;-122.632;2022-08-01T02:09:57;33.80;56.60
971;DHT22;28939;45.540;-122.632;2022-08-01T02:12:30;33.70;56.30
971;DHT22;28939;45.540;-122.632;2022-08-01T02:15:06;33.70;55.90
971;DHT22;28939;45.540;-122.632;2022-08-01T02:17:43;33.70;55.70
971;DHT22;28939;45.540;-122.632;2022-08-01T02:20:15;33.60;56.90
971;DHT22;28939;45.540;-122.632;2022-08-01T02:22:49;33.50;57.00
971;DHT22;28939;45.540;-122.632;2022-08-01T02:25:23;33.30;56.30
971;DHT22;28939;45.540;-122.632;2022-08-01T02:28:01;33.20;56.90
971;DHT22;28939;45.540;-122.632;2022-08-01T02:30:36;33.10;57.00
971;DHT22;28939;45.540;-122.632;2022-08-01T02:33:11;33.00;56.90
971;DHT22;28939;45.540;-122.632;2022-08-01T02:35:47;32.90;57.30
971;DHT22;28939;45.540;-122.632;2022-08-01T02:38:44;32.90;57.50
971;DHT22;28939;45.540;-122.632;2022-08-01T02:41:20;32.80;58.40
971;DHT22;28939;45.540;-122.632;2022-08-01T02:43:56;32.80;59.00
971;DHT22;28939;45.540;-122.632;2022-08-01T02:46:33;32.70;61.50
971;DHT22;28939;45.540;-122.632;2022-08-01T02:49:06;32.60;58.60
971;DHT22;28939;45.540;-122.632;2022-08-01T02:51:40;32.40;61.70
971;DHT22;28939;45.540;-122.632;2022-08-01T02:54:12;32.30;61.40
971;DHT22;28939;45.540;-122.632;2022-08-01T02:56:44;32.20;62.30
971;DHT22;28939;45.540;-122.632;2022-08-01T02:59:18;32.10;62.20
971;DHT22;28939;45.540;-122.632;2022-08-01T03:01:56;32.10;63.40
971;DHT22;28939;45.540;-122.632;2022-08-01T03:04:31;31.80;66.50
971;DHT22;28939;45.540;-122.632;2022-08-01T03:07:05;31.60;66.00
971;DHT22;28939;45.540;-122.632;2022-08-01T03:09:38;31.50;70.70
971;DHT22;28939;45.540;-122.632;2022-08-01T03:12:13;31.40;72.60
971;DHT22;28939;45.540;-122.632;2022-08-01T03:14:45;31.30;69.10
971;DHT22;28939;45.540;-122.632;2022-08-01T03:17:22;31.40;70.70
971;DHT22;28939;45.540;-122.632;2022-08-01T03:19:54;31.30;66.60
971;DHT22;28939;45.540;-122.632;2022-08-01T03:22:28;31.30;63.90
971;DHT22;28939;45.540;-122.632;2022-08-01T03:25:00;31.20;61.10
971;DHT22;28939;45.540;-122.632;2022-08-01T03:27:33;31.30;60.20
971;DHT22;28939;45.540;-122.632;2022-08-01T03:30:06;31.30;59.20
971;DHT22;28939;45.540;-122.632;2022-08-01T03:32:40;31.20;59.60
971;DHT22;28939;45.540;-122.632;2022-08-01T03:35:11;31.10;61.70
971;DHT22;28939;45.540;-122.632;2022-08-01T03:37:44;31.00;60.50
971;DHT22;28939;45.540;-122.632;2022-08-01T03:40:37;30.80;61.60
971;DHT22;28939;45.540;-122.632;2022-08-01T03:43:13;30.60;64.70
971;DHT22;28939;45.540;-122.632;2022-08-01T03:45:49;30.50;65.10
971;DHT22;28939;45.540;-122.632;2022-08-01T03:48:28;30.40;63.10
971;DHT22;28939;45.540;-122.632;2022-08-01T03:51:03;30.50;65.10
971;DHT22;28939;45.540;-122.632;2022-08-01T03:53:35;30.40;65.80
971;DHT22;28939;45.540;-122.632;2022-08-01T03:56:10;30.30;64.10
971;DHT22;28939;45.540;-122.632;2022-08-01T03:58:43;30.30;67.50
971;DHT22;28939;45.540;-122.632;2022-08-01T04:01:17;30.10;66.70
971;DHT22;28939;45.540;-122.632;2022-08-01T04:03:50;29.90;65.70
971;DHT22;28939;45.540;-122.632;2022-08-01T04:06:24;29.80;67.80
971;DHT22;28939;45.540;-122.632;2022-08-01T04:08:55;29.50;68.70
971;DHT22;28939;45.540;-122.632;2022-08-01T04:11:27;29.30;69.60
971;DHT22;28939;45.540;-122.632;2022-08-01T04:13:58;29.10;71.70
971;DHT22;28939;45.540;-122.632;2022-08-01T04:16:35;28.90;71.90
971;DHT22;28939;45.540;-122.632;2022-08-01T04:19:07;28.80;74.20
971;DHT22;28939;45.540;-122.632;2022-08-01T04:21:38;28.60;76.30
971;DHT22;28939;45.540;-122.632;2022-08-01T04:24:11;28.50;76.30
971;DHT22;28939;45.540;-122.632;2022-08-01T04:26:44;28.40;76.60
971;DHT22;28939;45.540;-122.632;2022-08-01T04:29:17;28.30;80.00
971;DHT22;28939;45.540;-122.632;2022-08-01T04:31:50;28.10;77.10
971;DHT22;28939;45.540;-122.632;2022-08-01T04:34:27;28.00;78.40
971;DHT22;28939;45.540;-122.632;2022-08-01T04:36:59;27.90;78.00
971;DHT22;28939;45.540;-122.632;2022-08-01T04:39:32;27.90;77.10
971;DHT22;28939;45.540;-122.632;2022-08-01T04:42:18;28.10;76.80
971;DHT22;28939;45.540;-122.632;2022-08-01T04:44:57;28.20;77.50
971;DHT22;28939;45.540;-122.632;2022-08-01T04:47:30;28.20;76.80
971;DHT22;28939;45.540;-122.632;2022-08-01T04:50:04;28.10;77.00
971;DHT22;28939;45.540;-122.632;2022-08-01T04:52:37;28.10;77.10
971;DHT22;28939;45.540;-122.632;2022-08-01T04:55:10;28.10;78.00
971;DHT22;28939;45.540;-122.632;2022-08-01T04:57:44;27.90;78.50
971;DHT22;28939;45.540;-122.632;2022-08-01T05:00:15;27.80;79.40
971;DHT22;28939;45.540;-122.632;2022-08-01T05:02:46;27.70;80.10
971;DHT22;28939;45.540;-122.632;2022-08-01T05:05:19;27.60;81.10
971;DHT22;28939;45.540;-122.632;2022-08-01T05:07:50;27.50;82.90
971;DHT22;28939;45.540;-122.632;2022-08-01T05:10:21;27.40;83.50
971;DHT22;28939;45.540;-122.632;2022-08-01T05:12:52;27.30;83.20
971;DHT22;28939;45.540;-122.632;2022-08-01T05:15:22;27.30;84.40
971;DHT22;28939;45.540;-122.632;2022-08-01T05:17:54;27.20;85.70
971;DHT22;28939;45.540;-122.632;2022-08-01T05:20:26;27.10;84.30
971;DHT22;28939;45.540;-122.632;2022-08-01T05:22:57;27.10;85.20
971;DHT22;28939;45.540;-122.632;2022-08-01T05:25:28;27.00;86.10
971;DHT22;28939;45.540;-122.632;2022-08-01T05:28:19;27.00;86.10
971;DHT22;28939;45.540;-122.632;2022-08-01T05:30:49;27.00;85.60
971;DHT22;28939;45.540;-122.632;2022-08-01T05:33:23;27.00;86.10
971;DHT22;28939;45.540;-122.632;2022-08-01T05:35:55;27.00;86.70
971;DHT22;28939;45.540;-122.632;2022-08-01T05:38:26;26.90;86.90
971;DHT22;28939;45.540;-122.632;2022-08-01T05:40:57;26.80;87.10
971;DHT22;28939;45.540;-122.632;2022-08-01T05:43:28;26.80;87.70
971;DHT22;28939;45.540;-122.632;2022-08-01T05:45:58;26.70;87.60
971;DHT22;28939;45.540;-122.632;2022-08-01T05:48:30;26.70;87.50
971;DHT22;28939;45.540;-122.632;2022-08-01T05:51:02;26.60;88.60
971;DHT22;28939;45.540;-122.632;2022-08-01T05:53:33;26.50;90.30
971;DHT22;28939;45.540;-122.632;2022-08-01T05:56:04;26.50;90.40
971;DHT22;28939;45.540;-122.632;2022-08-01T05:58:35;26.40;91.00
971;DHT22;28939;45.540;-122.632;2022-08-01T06:01:06;26.40;91.00
971;DHT22;28939;45.540;-122.632;2022-08-01T06:03:36;26.30;91.80
971;DHT22;28939;45.540;-122.632;2022-08-01T06:06:10;26.30;91.80
971;DHT22;28939;45.540;-122.632;2022-08-01T06:08:40;26.30;92.20
971;DHT22;28939;45.540;-122.632;2022-08-01T06:11:11;26.20;92.60
971;DHT22;28939;45.540;-122.632;2022-08-01T06:13:42;26.20;93.10
971;DHT22;28939;45.540;-122.632;2022-08-01T06:16:15;26.20;94.60
971;DHT22;28939;45.540;-122.632;2022-08-01T06:18:46;26.10;95.10
971;DHT22;28939;45.540;-122.632;2022-08-01T06:21:24;26.10;95.10
971;DHT22;28939;45.540;-122.632;2022-08-01T06:23:55;26.10;95.40
971;DHT22;28939;45.540;-122.632;2022-08-01T06:26:26;26.00;95.10
971;DHT22;28939;45.540;-122.632;2022-08-01T06:28:56;26.00;96.20
971;DHT22;28939;45.540;-122.632;2022-08-01T06:31:27;25.90;97.30
971;DHT22;28939;45.540;-122.632;2022-08-01T06:34:00;25.90;97.50
971;DHT22;28939;45.540;-122.632;2022-08-01T06:36:33;25.80;97.90
971;DHT22;28939;45.540;-122.632;2022-08-01T06:39:04;25.80;97.70
971;DHT22;28939;45.540;-122.632;2022-08-01T06:41:35;25.80;97.60
971;DHT22;28939;45.540;-122.632;2022-08-01T06:44:06;25.70;98.70
971;DHT22;28939;45.540;-122.632;2022-08-01T06:46:36;25.70;99.20
971;DHT22;28939;45.540;-122.632;2022-08-01T06:49:07;25.70;98.60
971;DHT22;28939;45.540;-122.632;2022-08-01T06:51:40;25.70;98.00
971;DHT22;28939;45.540;-122.632;2022-08-01T06:54:11;25.70;98.00
971;DHT22;28939;45.540;-122.632;2022-08-01T06:56:41;25.70;99.00
971;DHT22;28939;45.540;-122.632;2022-08-01T06:59:12;25.70;99.10
971;DHT22;28939;45.540;-122.632;2022-08-01T07:01:43;25.60;99.30
971;DHT22;28939;45.540;-122.632;2022-08-01T07:04:14;25.60;99.90
971;DHT22;28939;45.540;-122.632;2022-08-01T07:06:46;25.40;99.90
971;DHT22;28939;45.540;-122.632;2022-08-01T07:09:17;25.30;99.90
971;DHT22;28939;45.540;-122.632;2022-08-01T07:11:47;25.20;99.90
971;DHT22;28939;45.540;-122.632;2022-08-01T07:14:19;25.10;99.90
971;DHT22;28939;45.540;-122.632;2022-08-01T07:16:50;25.00;99.90
971;DHT22;28939;45.540;-122.632;2022-08-01T07:19:21;24.90;99.90
971;DHT22;28939;45.540;-122.632;2022-08-01T07:21:53;24.90;99.90
971;DHT22;28939;45.540;-122.632;2022-08-01T07:24:24;24.90;99.90
971;DHT22;28939;45.540;-122.632;2022-08-01T07:26:57;24.80;99.90
971;DHT22;28939;45.540;-122.632;2022-08-01T07:29:48;24.70;99.90
971;DHT22;28939;45.540;-122.632;2022-08-01T07:32:20;24.70;99.90
971;DHT22;28939;45.540;-122.632;2022-08-01T07:34:51;24.60;99.90
971;DHT22;28939;45.540;-122.632;2022-08-01T07:37:23;24.60;99.90
971;DHT22;28939;45.540;-122.632;2022-08-01T07:40:15;24.60;99.90
971;DHT22;28939;45.540;-122.632;2022-08-01T07:42:47;24.60;99.90
971;DHT22;28939;45.540;-122.632;2022-08-01T07:45:17;24.50;99.90
971;DHT22;28939;45.540;-122.632;2022-08-01T07:47:49;24.40;99.90
971;DHT22;28939;45.540;-122.632;2022-08-01T07:50:20;24.40;99.90
971;DHT22;28939;45.540;-122.632;2022-08-01T07:52:52;24.30;99.90
971;DHT22;28939;45.540;-122.632;2022-08-01T07:55:23;24.20;99.90
971;DHT22;28939;45.540;-122.632;2022-08-01T07:57:54;24.20;99.90
971;DHT22;28939;45.540;-122.632;2022-08-01T08:00:25;24.20;99.90
971;DHT22;28939;45.540;-122.632;2022-08-01T08:02:56;24.10;99.90
971;DHT22;28939;45.540;-122.632;2022-08-01T08:05:27;24.00;99.90
971;DHT22;28939;45.540;-122.632;2022-08-01T08:08:20;24.00;99.90
971;DHT22;28939;45.540;-122.632;2022-08-01T08:10:50;23.90;99.90
971;DHT22;28939;45.540;-122.632;2022-08-01T08:13:21;23.90;99.90
971;DHT22;28939;45.540;-122.632;2022-08-01T08:15:52;23.80;99.90
971;DHT22;28939;45.540;-122.632;2022-08-01T08:18:25;23.80;99.90
971;DHT22;28939;45.540;-122.632;2022-08-01T08:20:55;23.70;99.90
971;DHT22;28939;45.540;-122.632;2022-08-01T08:23:34;23.70;99.90
971;DHT22;28939;45.540;-122.632;2022-08-01T08:26:22;23.60;99.90
971;DHT22;28939;45.540;-122.632;2022-08-01T08:28:55;23.60;99.90
971;DHT22;28939;45.540;-122.632;2022-08-01T08:31:26;23.60;99.90
971;DHT22;28939;45.540;-122.632;2022-08-01T08:34:16;23.60;99.90
971;DHT22;28939;45.540;-122.632;2022-08-01T08:36:49;23.60;99.90
971;DHT22;28939;45.540;-122.632;2022-08-01T08:39:22;23.60;99.90
971;DHT22;28939;45.540;-122.632;2022-08-01T08:41:53;23.60;99.90
971;DHT22;28939;45.540;-122.632;2022-08-01T08:44:24;23.50;99.90
971;DHT22;28939;45.540;-122.632;2022-08-01T08:46:55;23.60;99.90
971;DHT22;28939;45.540;-122.632;2022-08-01T08:49:28;23.50;99.90
971;DHT22;28939;45.540;-122.632;2022-08-01T08:52:04;23.50;99.90
971;DHT22;28939;45.540;-122.632;2022-08-01T08:54:38;23.50;99.90
971;DHT22;28939;45.540;-122.632;2022-08-01T08:57:12;23.50;99.90
971;DHT22;28939;45.540;-122.632;2022-08-01T08:59:43;23.50;99.90
971;DHT22;28939;45.540;-122.632;2022-08-01T09:02:15;23.40;99.90
971;DHT22;28939;45.540;-122.632;2022-08-01T09:04:48;23.40;99.90
971;DHT22;28939;45.540;-122.632;2022-08-01T09:07:18;23.40;99.90
971;DHT22;28939;45.540;-122.632;2022-08-01T09:09:53;23.30;99.90
971;DHT22;28939;45.540;-122.632;2022-08-01T09:12:23;23.30;99.90
971;DHT22;28939;45.540;-122.632;2022-08-01T09:14:54;23.30;99.90
971;DHT22;28939;45.540;-122.632;2022-08-01T09:17:25;23.20;99.90
971;DHT22;28939;45.540;-122.632;2022-08-01T09:19:56;23.10;99.90
971;DHT22;28939;45.540;-122.632;2022-08-01T09:22:27;23.10;99.90
971;DHT22;28939;45.540;-122.632;2022-08-01T09:25:05;23.10;99.90
971;DHT22;28939;45.540;-122.632;2022-08-01T09:27:38;23.00;99.90
971;DHT22;28939;45.540;-122.632;2022-08-01T09:30:14;23.00;99.90
971;DHT22;28939;45.540;-122.632;2022-08-01T09:32:54;23.00;99.90
971;DHT22;28939;45.540;-122.632;2022-08-01T09:35:27;23.00;99.90
971;DHT22;28939;45.540;-122.632;2022-08-01T09:38:17;22.90;99.90
971;DHT22;28939;45.540;-122.632;2022-08-01T09:40:52;22.90;99.90
971;DHT22;28939;45.540;-122.632;2022-08-01T09:43:27;22.90;99.90
971;DHT22;28939;45.540;-122.632;2022-08-01T09:45:59;22.90;99.90
971;DHT22;28939;45.540;-122.632;2022-08-01T09:48:30;22.80;99.90
971;DHT22;28939;45.540;-122.632;2022-08-01T09:51:02;22.80;99.90
971;DHT22;28939;45.540;-122.632;2022-08-01T09:53:44;22.80;99.90
971;DHT22;28939;45.540;-122.632;2022-08-01T09:56:22;22.70;99.90
971;DHT22;28939;45.540;-122.632;2022-08-01T09:58:55;22.70;99.90
971;DHT22;28939;45.540;-122.632;2022-08-01T10:01:40;22.80;99.90
971;DHT22;28939;45.540;-122.632;2022-08-01T10:04:13;22.80;99.90
971;DHT22;28939;45.540;-122.632;2022-08-01T10:06:46;22.80;99.90
971;DHT22;28939;45.540;-122.632;2022-08-01T10:09:29;22.80;99.90
971;DHT22;28939;45.540;-122.632;2022-08-01T10:12:10;22.80;99.90
971;DHT22;28939;45.540;-122.632;2022-08-01T10:14:44;22.80;99.90
971;DHT22;28939;45.540;-122.632;2022-08-01T10:17:19;22.80;99.90
971;DHT22;28939;45.540;-122.632;2022-08-01T10:19:50;22.80;99.90
971;DHT22;28939;45.540;-122.632;2022-08-01T10:22:26;22.80;99.90
971;DHT22;28939;45.540;-122.632;2022-08-01T10:25:03;22.80;99.90
971;DHT22;28939;45.540;-122.632;2022-08-01T10:27:37;22.70;99.90
971;DHT22;28939;45.540;-122.632;2022-08-01T10:30:09;22.70;99.90
971;DHT22;28939;45.540;-122.632;2022-08-01T10:32:50;22.70;99.90
971;DHT22;28939;45.540;-122.632;2022-08-01T10:35:22;22.70;99.90
971;DHT22;28939;45.540;-122.632;2022-08-01T10:38:13;22.70;99.90
971;DHT22;28939;45.540;-122.632;2022-08-01T10:40:45;22.70;99.90
971;DHT22;28939;45.540;-122.632;2022-08-01T10:43:18;22.70;99.90
971;DHT22;28939;45.540;-122.632;2022-08-01T10:45:49;22.70;99.90
971;DHT22;28939;45.540;-122.632;2022-08-01T10:48:29;22.80;99.90
971;DHT22;28939;45.540;-122.632;2022-08-01T10:51:03;22.80;99.90
971;DHT22;28939;45.540;-122.632;2022-08-01T10:53:50;22.80;99.90
971;DHT22;28939;45.540;-122.632;2022-08-01T10:56:24;22.80;99.90
971;DHT22;28939;45.540;-122.632;2022-08-01T10:59:03;22.80;99.90
971;DHT22;28939;45.540;-122.632;2022-08-01T11:01:38;22.80;99.90
971;DHT22;28939;45.540;-122.632;2022-08-01T11:04:12;22.80;99.90
971;DHT22;28939;45.540;-122.632;2022-08-01T11:06:54;22.80;99.90
971;DHT22;28939;45.540;-122.632;2022-08-01T11:09:40;22.90;99.90
971;DHT22;28939;45.540;-122.632;2022-08-01T11:12:18;22.90;99.90
971;DHT22;28939;45.540;-122.632;2022-08-01T11:15:18;22.90;99.90
971;DHT22;28939;45.540;-122.632;2022-08-01T11:18:01;22.90;99.90
971;DHT22;28939;45.540;-122.632;2022-08-01T11:20:33;22.90;99.90
971;DHT22;28939;45.540;-122.632;2022-08-01T11:23:18;22.90;99.90
971;DHT22;28939;45.540;-122.632;2022-08-01T11:26:12;22.90;99.90
971;DHT22;28939;45.540;-122.632;2022-08-01T11:28:46;22.90;99.90
971;DHT22;28939;45.540;-122.632;2022-08-01T11:31:39;22.80;99.90
971;DHT22;28939;45.540;-122.632;2022-08-01T11:34:10;22.80;99.90
971;DHT22;28939;45.540;-122.632;2022-08-01T11:36:42;22.80;99.90
971;DHT22;28939;45.540;-122.632;2022-08-01T11:39:30;22.70;99.90
971;DHT22;28939;45.540;-122.632;2022-08-01T11:42:18;22.70;99.90
971;DHT22;28939;45.540;-122.632;2022-08-01T11:44:53;22.70;99.90
971;DHT22;28939;45.540;-122.632;2022-08-01T11:47:47;22.60;99.90
971;DHT22;28939;45.540;-122.632;2022-08-01T11:50:36;22.50;99.90
971;DHT22;28939;45.540;-122.632;2022-08-01T11:53:08;22.40;99.90
971;DHT22;28939;45.540;-122.632;2022-08-01T11:55:45;22.30;99.90
971;DHT22;28939;45.540;-122.632;2022-08-01T11:58:22;22.30;99.90
971;DHT22;28939;45.540;-122.632;2022-08-01T12:00:57;22.20;99.90
971;DHT22;28939;45.540;-122.632;2022-08-01T12:03:31;22.20;99.90
971;DHT22;28939;45.540;-122.632;2022-08-01T12:06:02;22.20;99.90
971;DHT22;28939;45.540;-122.632;2022-08-01T12:08:34;22.10;99.90
971;DHT22;28939;45.540;-122.632;2022-08-01T12:11:05;22.00;99.90
971;DHT22;28939;45.540;-122.632;2022-08-01T12:13:40;22.00;99.90
971;DHT22;28939;45.540;-122.632;2022-08-01T12:16:12;22.00;99.90
971;DHT22;28939;45.540;-122.632;2022-08-01T12:18:44;21.90;99.90
971;DHT22;28939;45.540;-122.632;2022-08-01T12:21:15;22.10;99.90
971;DHT22;28939;45.540;-122.632;2022-08-01T12:24:01;21.90;99.90
971;DHT22;28939;45.540;-122.632;2022-08-01T12:26:41;21.90;99.90
971;DHT22;28939;45.540;-122.632;2022-08-01T12:29:31;21.90;99.90
971;DHT22;28939;45.540;-122.632;2022-08-01T12:32:02;21.90;99.90
971;DHT22;28939;45.540;-122.632;2022-08-01T12:34:35;21.80;99.90
971;DHT22;28939;45.540;-122.632;2022-08-01T12:37:06;21.80;99.90
971;DHT22;28939;45.540;-122.632;2022-08-01T12:39:39;21.80;99.90
971;DHT22;28939;45.540;-122.632;2022-08-01T12:42:09;21.70;99.90
971;DHT22;28939;45.540;-122.632;2022-08-01T12:44:43;21.60;99.90
971;DHT22;28939;45.540;-122.632;2022-08-01T12:47:15;21.60;99.90
971;DHT22;28939;45.540;-122.632;2022-08-01T12:49:48;21.50;99.90
971;DHT22;28939;45.540;-122.632;2022-08-01T12:52:19;21.40;99.90
971;DHT22;28939;45.540;-122.632;2022-08-01T12:55:13;21.30;99.90
971;DHT22;28939;45.540;-122.632;2022-08-01T12:57:47;21.20;99.90
971;DHT22;28939;45.540;-122.632;2022-08-01T13:00:22;21.20;99.90
971;DHT22;28939;45.540;-122.632;2022-08-01T13:03:03;21.10;99.90
971;DHT22;28939;45.540;-122.632;2022-08-01T13:05:47;21.00;99.90
971;DHT22;28939;45.540;-122.632;2022-08-01T13:08:19;21.00;99.90
971;DHT22;28939;45.540;-122.632;2022-08-01T13:10:59;21.00;99.90
971;DHT22;28939;45.540;-122.632;2022-08-01T13:13:39;20.90;99.90
971;DHT22;28939;45.540;-122.632;2022-08-01T13:16:11;20.90;99.90
971;DHT22;28939;45.540;-122.632;2022-08-01T13:19:02;20.80;99.90
971;DHT22;28939;45.540;-122.632;2022-08-01T13:21:35;20.80;99.90
971;DHT22;28939;45.540;-122.632;2022-08-01T13:24:25;20.80;99.90
971;DHT22;28939;45.540;-122.632;2022-08-01T13:26:58;20.80;99.90
971;DHT22;28939;45.540;-122.632;2022-08-01T13:29:32;20.80;99.90
971;DHT22;28939;45.540;-122.632;2022-08-01T13:32:13;20.80;99.90
971;DHT22;28939;45.540;-122.632;2022-08-01T13:35:04;20.80;99.90
971;DHT22;28939;45.540;-122.632;2022-08-01T13:37:40;20.90;99.90
971;DHT22;28939;45.540;-122.632;2022-08-01T13:40:12;20.80;99.90
971;DHT22;28939;45.540;-122.632;2022-08-01T13:42:53;20.80;99.90
971;DHT22;28939;45.540;-122.632;2022-08-01T13:45:25;20.80;99.90
971;DHT22;28939;45.540;-122.632;2022-08-01T13:47:56;20.90;99.90
971;DHT22;28939;45.540;-122.632;2022-08-01T13:50:40;20.90;99.90
971;DHT22;28939;45.540;-122.632;2022-08-01T13:53:12;21.00;99.90
971;DHT22;28939;45.540;-122.632;2022-08-01T13:55:43;21.00;99.90
971;DHT22;28939;45.540;-122.632;2022-08-01T13:58:14;20.90;99.90
971;DHT22;28939;45.540;-122.632;2022-08-01T14:00:45;21.00;99.90
971;DHT22;28939;45.540;-122.632;2022-08-01T14:03:16;21.00;99.90
971;DHT22;28939;45.540;-122.632;2022-08-01T14:05:53;21.10;99.90
971;DHT22;28939;45.540;-122.632;2022-08-01T14:08:27;21.10;99.90
971;DHT22;28939;45.540;-122.632;2022-08-01T14:10:58;21.20;99.90
971;DHT22;28939;45.540;-122.632;2022-08-01T14:13:34;21.20;99.90
971;DHT22;28939;45.540;-122.632;2022-08-01T14:16:12;21.20;99.90
971;DHT22;28939;45.540;-122.632;2022-08-01T14:18:43;21.20;99.90
971;DHT22;28939;45.540;-122.632;2022-08-01T14:21:14;21.40;99.90
971;DHT22;28939;45.540;-122.632;2022-08-01T14:23:47;21.30;99.90
971;DHT22;28939;45.540;-122.632;2022-08-01T14:26:17;21.40;99.90
971;DHT22;28939;45.540;-122.632;2022-08-01T14:28:48;21.50;99.90
971;DHT22;28939;45.540;-122.632;2022-08-01T14:31:19;21.60;99.90
971;DHT22;28939;45.540;-122.632;2022-08-01T14:33:50;21.80;99.90
971;DHT22;28939;45.540;-122.632;2022-08-01T14:36:20;22.00;99.90
971;DHT22;28939;45.540;-122.632;2022-08-01T14:38:59;22.70;99.90
971;DHT22;28939;45.540;-122.632;2022-08-01T14:41:31;23.90;99.90
971;DHT22;28939;45.540;-122.632;2022-08-01T14:44:02;24.80;99.90
971;DHT22;28939;45.540;-122.632;2022-08-01T14:46:33;25.90;99.90
971;DHT22;28939;45.540;-122.632;2022-08-01T14:49:08;26.90;97.80
971;DHT22;28939;45.540;-122.632;2022-08-01T14:51:39;27.40;94.90
971;DHT22;28939;45.540;-122.632;2022-08-01T14:54:12;28.10;94.00
971;DHT22;28939;45.540;-122.632;2022-08-01T14:56:42;28.90;91.90
971;DHT22;28939;45.540;-122.632;2022-08-01T14:59:15;29.80;90.70
971;DHT22;28939;45.540;-122.632;2022-08-01T15:01:48;30.30;88.60
971;DHT22;28939;45.540;-122.632;2022-08-01T15:04:19;30.90;84.00
971;DHT22;28939;45.540;-122.632;2022-08-01T15:06:50;31.30;81.00
971;DHT22;28939;45.540;-122.632;2022-08-01T15:09:22;30.10;85.40
971;DHT22;28939;45.540;-122.632;2022-08-01T15:11:53;30.20;84.20
971;DHT22;28939;45.540;-122.632;2022-08-01T15:14:24;30.00;83.70
971;DHT22;28939;45.540;-122.632;2022-08-01T15:17:11;31.30;80.60
971;DHT22;28939;45.540;-122.632;2022-08-01T15:19:42;31.50;79.50
971;DHT22;28939;45.540;-122.632;2022-08-01T15:22:13;31.20;77.10
971;DHT22;28939;45.540;-122.632;2022-08-01T15:24:45;30.60;79.50
971;DHT22;28939;45.540;-122.632;2022-08-01T15:27:19;30.10;80.80
971;DHT22;28939;45.540;-122.632;2022-08-01T15:29:50;30.70;79.80
971;DHT22;28939;45.540;-122.632;2022-08-01T15:32:21;31.50;75.40
971;DHT22;28939;45.540;-122.632;2022-08-01T15:34:52;30.90;77.30
971;DHT22;28939;45.540;-122.632;2022-08-01T15:37:23;29.20;82.10
971;DHT22;28939;45.540;-122.632;2022-08-01T15:39:55;28.30;88.10
971;DHT22;28939;45.540;-122.632;2022-08-01T15:42:26;27.80;89.20
971;DHT22;28939;45.540;-122.632;2022-08-01T15:44:57;27.60;89.90
971;DHT22;28939;45.540;-122.632;2022-08-01T15:47:28;27.40;90.30
971;DHT22;28939;45.540;-122.632;2022-08-01T15:49:58;27.60;89.70
971;DHT22;28939;45.540;-122.632;2022-08-01T15:52:30;27.30;90.60
971;DHT22;28939;45.540;-122.632;2022-08-01T15:55:03;27.90;89.20
971;DHT22;28939;45.540;-122.632;2022-08-01T15:57:33;28.80;86.40
971;DHT22;28939;45.540;-122.632;2022-08-01T16:00:05;28.40;89.80
971;DHT22;28939;45.540;-122.632;2022-08-01T16:02:36;27.90;89.60
971;DHT22;28939;45.540;-122.632;2022-08-01T16:05:08;27.40;91.00
971;DHT22;28939;45.540;-122.632;2022-08-01T16:07:39;26.80;91.50